Time;durP1;ratioP1;P1;durP2;ratioP2;P2;SDS_P1;SDS_P2;PMS_P1;PMS_P2;Temp;Humidity;BMP_temperature;BMP_pressure;BME280_temperature;BME280_humidity;BME280_pressure;Samples;Min_cycle;Max_cycle;Signal;HPM_P1;HPM_P2
2022/07/18 00:00:55;;;;;;;0.00;0.00;;;21.30;64.50;;;22.67;55.38;102497.72;2056903;28;20517;-60
2022/07/18 00:02:00;;;;;;;0.15;0.05;;;21.30;64.40;;;22.64;55.12;102493.78;2056020;28;20063;-58
2022/07/18 00:03:03;;;;;;;0.10;0.10;;;21.20;64.30;;;22.63;54.88;102491.41;2064980;28;20046;-58
2022/07/18 00:04:06;;;;;;;0.00;0.00;;;21.20;64.30;;;22.59;55.29;102491.38;2064769;28;20050;-59
2022/07/18 00:05:11;;;;;;;0.10;0.10;;;21.20;64.30;;;22.54;55.54;102491.72;2064766;28;20078;-64
2022/07/18 00:06:13;;;;;;;0.05;0.05;;;21.20;64.40;;;22.51;55.81;102488.91;2056579;28;20058;-58
2022/07/18 00:07:17;;;;;;;0.00;0.00;;;21.10;64.30;;;22.47;55.19;102488.09;2056654;28;20489;-58
2022/07/18 00:08:19;;;;;;;0.10;0.10;;;21.10;64.20;;;22.46;55.75;102486.50;2056866;28;20510;-58
2022/07/18 00:09:23;;;;;;;0.10;0.10;;;21.20;64.30;;;22.46;55.78;102481.00;2061174;28;20053;-59
2022/07/18 00:10:26;;;;;;;0.00;0.00;;;21.20;64.30;;;22.48;55.84;102486.91;2064482;28;20054;-60
2022/07/18 00:11:30;;;;;;;0.00;0.00;;;21.10;64.20;;;22.47;55.26;102482.59;2064887;28;20058;-60
2022/07/18 00:12:33;;;;;;;0.00;0.00;;;21.10;64.20;;;22.46;55.18;102481.81;2058955;28;20055;-59
2022/07/18 00:13:36;;;;;;;0.00;0.00;;;21.10;64.20;;;22.44;55.21;102480.63;2056762;28;20549;-59
2022/07/18 00:14:40;;;;;;;0.00;0.00;;;21.10;64.20;;;22.42;55.48;102480.97;2062400;28;20054;-58
2022/07/18 00:15:43;;;;;;;0.10;0.10;;;21.10;64.30;;;22.40;55.43;102482.53;2062938;28;20181;-59
2022/07/18 00:16:45;;;;;;;0.10;0.10;;;21.00;64.30;;;22.40;55.59;102488.03;2056858;28;20471;-58
2022/07/18 00:17:49;;;;;;;0.00;0.00;;;21.00;64.30;;;22.37;55.79;102486.84;2055568;28;20062;-58
2022/07/18 00:18:52;;;;;;;0.00;0.00;;;21.00;64.50;;;22.37;55.81;102489.59;2056823;28;20627;-59
2022/07/18 00:19:55;;;;;;;0.03;0.03;;;21.00;64.60;;;22.37;55.72;102483.28;2058898;28;20058;-59
2022/07/18 00:20:59;;;;;;;0.00;0.00;;;21.00;64.70;;;22.34;55.56;102489.56;2056510;28;20094;-59
2022/07/18 00:22:03;;;;;;;0.00;0.00;;;21.00;64.80;;;22.32;55.37;102486.41;2056738;28;20503;-59
2022/07/18 00:23:05;;;;;;;0.08;0.08;;;21.00;64.90;;;22.33;56.11;102490.72;2055691;28;20054;-59
2022/07/18 00:24:08;;;;;;;0.10;0.10;;;21.00;64.90;;;22.27;56.11;102489.50;2048310;28;20062;-62
2022/07/18 00:25:11;;;;;;;0.00;0.00;;;20.90;64.90;;;22.21;56.02;102489.06;2047887;29;20455;-59
2022/07/18 00:26:14;;;;;;;0.10;0.10;;;21.00;65.00;;;22.17;56.57;102491.78;2050997;28;20442;-59
2022/07/18 00:27:17;;;;;;;0.00;0.00;;;20.90;65.20;;;22.17;56.76;102488.22;2056061;28;20046;-59
2022/07/18 00:28:20;;;;;;;0.10;0.10;;;20.90;65.40;;;22.14;56.72;102484.28;2055128;28;20055;-59
2022/07/18 00:29:22;;;;;;;0.10;0.10;;;20.80;65.50;;;22.15;56.36;102494.09;2064434;28;20121;-61
2022/07/18 00:30:26;;;;;;;0.10;0.10;;;20.90;65.70;;;22.12;56.70;102486.63;2064125;28;20148;-58
2022/07/18 00:31:28;;;;;;;0.00;0.00;;;20.90;65.80;;;22.07;57.17;102486.97;2063462;28;20517;-59
2022/07/18 00:32:32;;;;;;;0.05;0.05;;;20.80;65.80;;;22.06;56.80;102485.38;2064413;28;20062;-64
2022/07/18 00:33:34;;;;;;;0.10;0.10;;;20.80;65.90;;;22.08;57.21;102488.56;2058827;28;20055;-60
2022/07/18 00:34:38;;;;;;;0.10;0.10;;;20.80;66.00;;;22.07;57.26;102492.47;2061084;28;20054;-58
2022/07/18 00:35:41;;;;;;;0.00;0.00;;;20.80;66.10;;;22.08;57.35;102479.50;2064320;28;20058;-59
2022/07/18 00:36:45;;;;;;;0.08;0.08;;;20.80;66.20;;;22.10;57.11;102486.19;2055782;28;20170;-59
2022/07/18 00:37:48;;;;;;;0.10;0.10;;;20.70;66.30;;;22.11;56.97;102481.50;2055413;28;20070;-58
2022/07/18 00:38:51;;;;;;;0.10;0.10;;;20.70;66.30;;;22.08;56.85;102476.75;2057303;28;20055;-58
2022/07/18 00:39:55;;;;;;;0.08;0.08;;;20.70;66.30;;;22.02;56.96;102479.03;2059840;28;20612;-58
2022/07/18 00:40:57;;;;;;;0.00;0.00;;;20.70;66.50;;;22.03;57.48;102480.63;2059810;28;20446;-58
2022/07/18 00:42:01;;;;;;;0.10;0.10;;;20.70;66.60;;;22.03;57.04;102479.84;2061169;28;20070;-61
2022/07/18 00:43:03;;;;;;;0.00;0.00;;;20.70;67.20;;;22.03;57.73;102482.59;2067922;28;20053;-60
2022/07/18 00:44:18;;;;;;;0.00;0.00;;;20.70;66.70;;;21.99;57.35;102484.53;2064390;28;20057;-60
2022/07/18 00:45:20;;;;;;;0.10;0.10;;;20.70;67.10;;;21.99;57.08;102474.31;2055865;28;20645;-58
2022/07/18 00:46:25;;;;;;;0.03;0.03;;;20.60;66.90;;;21.97;57.84;102476.66;2062973;28;20134;-58
2022/07/18 00:47:28;;;;;;;0.00;0.00;;;20.60;67.10;;;21.94;57.23;102474.66;2072589;28;20053;-60
2022/07/18 00:48:31;;;;;;;0.05;0.05;;;20.60;67.30;;;21.91;57.47;102463.63;2062068;28;20078;-60
2022/07/18 00:49:34;;;;;;;0.00;0.00;;;20.50;67.30;;;21.86;57.85;102469.47;2047692;29;20082;-58
2022/07/18 00:50:37;;;;;;;0.00;0.00;;;20.50;67.30;;;21.80;57.79;102469.00;2055326;28;20055;-59
2022/07/18 00:51:40;;;;;;;0.00;0.00;;;20.50;67.30;;;21.75;57.87;102469.38;2067220;28;20061;-59
2022/07/18 00:52:45;;;;;;;0.00;0.00;;;20.50;67.40;;;21.72;58.02;102467.31;2063255;28;20517;-59
2022/07/18 00:53:50;;;;;;;0.10;0.10;;;20.50;67.60;;;21.69;58.40;102465.31;2064512;28;20050;-59
2022/07/18 00:54:52;;;;;;;0.10;0.10;;;20.40;67.60;;;21.69;58.45;102470.03;2064308;28;20070;-59
2022/07/18 00:55:56;;;;;;;0.00;0.00;;;20.50;67.80;;;21.68;58.19;102466.50;2064423;28;20061;-58
2022/07/18 00:56:59;;;;;;;0.00;0.00;;;20.50;67.80;;;21.65;58.76;102467.25;2055363;28;20183;-59
2022/07/18 00:58:02;;;;;;;0.10;0.10;;;20.50;67.70;;;21.61;58.40;102462.88;2056992;28;20578;-59
2022/07/18 00:59:05;;;;;;;0.10;0.10;;;20.50;67.70;;;21.57;58.92;102473.84;2064159;28;20130;-58
2022/07/18 01:01:45;;;;;;;0.00;0.00;;;20.50;67.60;;;21.45;59.21;102462.31;2055471;28;20054;-59
2022/07/18 01:02:47;;;;;;;0.00;0.00;;;20.50;67.50;;;21.37;59.12;102458.69;2059586;28;20050;-59
2022/07/18 01:03:51;;;;;;;0.10;0.10;;;20.40;67.50;;;21.32;59.52;102449.97;2064337;28;20062;-58
2022/07/18 01:04:54;;;;;;;0.08;0.08;;;20.40;67.50;;;21.25;59.48;102458.91;2057232;28;20063;-58
2022/07/18 01:05:57;;;;;;;0.10;0.10;;;20.40;67.60;;;21.19;59.67;102449.44;2055397;28;20051;-59
2022/07/18 01:07:02;;;;;;;0.00;0.00;;;20.40;67.70;;;21.18;60.09;102453.34;2056415;28;20073;-59
2022/07/18 01:08:07;;;;;;;0.00;0.00;;;20.40;67.80;;;21.16;59.97;102458.41;2060532;28;20520;-66
2022/07/18 01:09:10;;;;;;;0.00;0.00;;;20.30;67.90;;;21.16;60.14;102452.91;2056522;28;20475;-58
2022/07/18 01:10:14;;;;;;;0.00;0.00;;;20.30;67.90;;;21.15;59.70;102459.59;2055658;28;20058;-60
2022/07/18 01:11:16;;;;;;;0.10;0.10;;;20.30;68.10;;;21.18;60.12;102461.59;2055938;28;20054;-59
2022/07/18 01:12:20;;;;;;;0.10;0.10;;;20.30;68.10;;;21.17;60.05;102456.47;2063124;28;20130;-58
2022/07/18 01:13:22;;;;;;;0.10;0.10;;;20.30;68.20;;;21.25;60.03;102464.41;2062207;28;20402;-62
2022/07/18 01:14:27;;;;;;;0.10;0.10;;;20.30;68.30;;;21.26;59.74;102474.25;2055742;28;20125;-59
2022/07/18 01:15:29;;;;;;;0.00;0.00;;;20.30;68.30;;;21.30;59.77;102472.31;2061365;28;20624;-59
2022/07/18 01:16:32;;;;;;;0.10;0.10;;;20.30;68.30;;;21.31;59.59;102471.16;2062924;28;20049;-59
2022/07/18 01:17:36;;;;;;;0.10;0.10;;;20.30;68.30;;;21.30;59.48;102475.06;2072625;28;20470;-58
2022/07/18 01:18:45;;;;;;;0.10;0.10;;;20.30;68.30;;;21.33;59.69;102474.31;2064890;28;20058;-59
2022/07/18 01:19:48;;;;;;;0.10;0.10;;;20.30;68.40;;;21.36;59.17;102464.56;2061450;28;20438;-59
2022/07/18 01:20:53;;;;;;;0.00;0.00;;;20.30;68.20;;;21.34;59.16;102464.94;2064368;28;20161;-62
2022/07/18 01:21:55;;;;;;;0.00;0.00;;;20.30;68.10;;;21.33;59.45;102451.53;2060446;28;20078;-58
2022/07/18 01:22:59;;;;;;;0.00;0.00;;;20.20;68.00;;;21.28;59.19;102449.16;2063753;28;20445;-58
2022/07/18 01:24:02;;;;;;;0.10;0.10;;;20.20;68.00;;;21.16;59.51;102447.44;2064499;28;20454;-58
2022/07/18 01:25:07;;;;;;;0.00;0.00;;;20.20;68.10;;;21.08;59.92;102448.50;2064296;28;20465;-59
2022/07/18 01:26:12;;;;;;;0.10;0.10;;;20.10;68.20;;;21.07;59.86;102440.63;2064416;28;20498;-60
2022/07/18 01:27:17;;;;;;;0.00;0.00;;;20.00;68.40;;;21.08;59.52;102440.25;2064209;28;20047;-58
2022/07/18 01:28:20;;;;;;;0.10;0.10;;;19.90;68.60;;;21.09;59.87;102436.34;2060681;28;20113;-58
2022/07/18 01:29:23;;;;;;;0.00;0.00;;;19.80;68.90;;;21.05;59.74;102437.47;2056308;28;20085;-59
2022/07/18 01:30:26;;;;;;;0.08;0.00;;;19.80;69.10;;;20.98;59.56;102443.66;2055827;28;20093;-58
2022/07/18 01:31:33;;;;;;;0.10;0.10;;;19.70;69.30;;;20.91;59.93;102435.31;2055245;28;20082;-58
2022/07/18 01:32:35;;;;;;;0.10;0.10;;;19.70;69.40;;;20.89;59.83;102437.63;2056494;28;20478;-59
2022/07/18 01:33:39;;;;;;;0.10;0.10;;;19.60;69.40;;;20.82;60.07;102444.97;2051947;28;20117;-65
2022/07/18 01:34:44;;;;;;;0.00;0.00;;;19.60;69.40;;;20.77;60.17;102444.13;2056124;28;20082;-59
2022/07/18 01:35:47;;;;;;;0.10;0.10;;;19.60;69.40;;;20.73;59.96;102447.97;2055165;28;20062;-59
2022/07/18 01:36:51;;;;;;;0.03;0.03;;;19.60;69.20;;;20.68;60.04;102449.09;2055885;28;20602;-58
2022/07/18 01:37:57;;;;;;;0.10;0.10;;;19.60;69.20;;;20.68;59.96;102448.28;2063618;28;20058;-59
2022/07/18 01:38:59;;;;;;;0.10;0.10;;;19.60;69.10;;;20.71;60.11;102456.59;2056638;28;20081;-58
2022/07/18 01:40:07;;;;;;;0.10;0.10;;;19.70;69.10;;;20.77;59.80;102454.31;2056004;28;20262;-58
2022/07/18 01:41:11;;;;;;;0.10;0.10;;;19.70;69.10;;;20.83;59.42;102461.06;2056465;28;20501;-59
2022/07/18 01:42:14;;;;;;;0.00;0.00;;;19.70;68.90;;;20.88;59.47;102463.50;2060355;28;20061;-58
2022/07/18 01:43:18;;;;;;;0.00;0.00;;;19.70;68.80;;;20.92;59.17;102452.53;2064388;28;20065;-59
2022/07/18 01:44:20;;;;;;;0.00;0.00;;;19.70;68.60;;;20.96;59.04;102459.72;2059816;28;20050;-58
2022/07/18 01:45:23;;;;;;;0.10;0.10;;;19.70;68.50;;;21.00;58.85;102451.50;2056301;28;20098;-59
2022/07/18 01:46:26;;;;;;;0.00;0.00;;;19.80;68.40;;;21.01;58.53;102453.13;2062445;28;20047;-58
2022/07/18 01:47:29;;;;;;;0.00;0.00;;;19.70;68.10;;;21.00;58.74;102455.06;2062428;28;20046;-58
2022/07/18 01:48:32;;;;;;;0.10;0.10;;;19.70;68.00;;;20.98;58.44;102456.59;2056216;28;20055;-58
2022/07/18 01:49:35;;;;;;;0.00;0.00;;;19.70;68.00;;;20.94;58.53;102456.53;2055709;28;20050;-59
2022/07/18 01:50:38;;;;;;;0.10;0.10;;;19.70;68.00;;;20.87;58.71;102461.13;2061747;28;20093;-59
2022/07/18 01:51:45;;;;;;;0.00;0.00;;;19.60;68.10;;;20.75;58.95;102451.94;2063480;28;20089;-58
2022/07/18 01:52:49;;;;;;;0.00;0.00;;;19.60;68.20;;;20.68;59.25;102448.28;2053365;28;20055;-59
2022/07/18 01:54:01;;;;;;;0.00;0.00;;;19.50;68.40;;;20.64;59.32;102450.97;2061816;28;20058;-58
2022/07/18 01:55:06;;;;;;;0.00;0.00;;;19.40;68.70;;;20.61;59.31;102446.22;2056032;28;20541;-58
2022/07/18 01:56:12;;;;;;;0.10;0.10;;;19.30;68.90;;;20.58;59.17;102443.47;2055096;28;20062;-59
2022/07/18 01:57:14;;;;;;;0.10;0.10;;;19.20;69.10;;;20.58;59.20;102443.47;2055846;28;20082;-59
2022/07/18 01:58:18;;;;;;;0.00;0.00;;;19.20;69.40;;;20.57;59.38;102437.16;2047765;29;20055;-59
2022/07/18 01:59:21;;;;;;;0.10;0.10;;;19.10;69.60;;;20.56;59.39;102440.28;2051929;28;20095;-58
2022/07/18 02:00:24;;;;;;;0.00;0.00;;;19.10;69.70;;;20.53;59.52;102430.03;2063647;28;20582;-58
2022/07/18 02:01:27;;;;;;;0.05;0.05;;;19.10;69.70;;;20.41;59.78;102419.25;2047724;28;20051;-59
2022/07/18 02:02:30;;;;;;;0.10;0.10;;;19.10;69.50;;;20.38;59.79;102430.97;2058006;28;20498;-59
2022/07/18 02:03:32;;;;;;;0.08;0.08;;;19.20;69.40;;;20.30;60.00;102430.06;2055426;28;20051;-58
2022/07/18 02:05:58;;;;;;;0.10;0.10;;;19.20;69.00;;;20.25;59.91;102435.06;2055921;28;20054;-59
2022/07/18 02:07:00;;;;;;;0.10;0.10;;;19.20;69.40;;;20.24;60.12;102428.81;2056215;28;20506;-58
2022/07/18 02:08:05;;;;;;;0.10;0.10;;;19.20;68.70;;;20.28;59.94;102434.34;2058208;28;20630;-58
2022/07/18 02:09:09;;;;;;;0.10;0.10;;;19.20;68.70;;;20.32;59.75;102436.00;2063872;28;20078;-58
2022/07/18 02:10:17;;;;;;;0.00;0.00;;;19.20;68.60;;;20.34;59.70;102430.13;2064188;28;20481;-60
2022/07/18 02:11:20;;;;;;;0.00;0.00;;;19.20;68.70;;;20.29;59.69;102424.97;2057546;28;20058;-58
2022/07/18 02:12:23;;;;;;;0.10;0.10;;;19.20;68.50;;;20.23;59.84;102426.44;2055802;28;20077;-58
2022/07/18 02:13:26;;;;;;;0.10;0.10;;;19.20;68.40;;;20.18;59.91;102429.47;2056190;28;20113;-60
2022/07/18 02:14:30;;;;;;;0.10;0.10;;;19.30;68.40;;;20.16;60.14;102432.59;2055275;28;20513;-59
2022/07/18 02:15:33;;;;;;;0.10;0.10;;;19.30;68.40;;;20.15;60.00;102424.72;2056182;28;20070;-59
2022/07/18 02:16:36;;;;;;;0.00;0.00;;;19.30;68.20;;;20.15;60.23;102431.00;2055560;28;20101;-60
2022/07/18 02:17:40;;;;;;;0.03;0.03;;;19.30;68.10;;;20.19;59.89;102422.81;2055742;28;20058;-60
2022/07/18 02:18:42;;;;;;;0.08;0.08;;;19.30;68.10;;;20.22;59.76;102419.34;2056129;28;20525;-59
2022/07/18 02:19:45;;;;;;;0.05;0.05;;;19.30;68.00;;;20.24;59.92;102411.56;2061477;28;20128;-58
2022/07/18 02:20:49;;;;;;;0.10;0.10;;;19.30;68.00;;;20.24;59.65;102417.03;2065889;28;20129;-59
2022/07/18 02:21:51;;;;;;;0.08;0.08;;;19.30;68.00;;;20.21;59.82;102409.53;2057746;28;20069;-59
2022/07/18 02:22:55;;;;;;;0.10;0.10;;;19.30;67.90;;;20.25;59.47;102418.59;2057546;28;20108;-58
2022/07/18 02:23:58;;;;;;;0.00;0.00;;;19.30;67.90;;;20.21;59.31;102412.28;2057609;28;20422;-59
2022/07/18 02:25:02;;;;;;;0.10;0.10;;;19.20;67.80;;;20.16;59.57;102415.34;2062909;28;20158;-58
2022/07/18 02:26:07;;;;;;;0.10;0.10;;;19.20;67.70;;;20.11;59.61;102416.41;2065166;28;20084;-61
2022/07/18 02:27:09;;;;;;;0.10;0.10;;;19.20;67.60;;;20.07;59.70;102412.84;2065579;28;20062;-59
2022/07/18 02:28:13;;;;;;;0.10;0.10;;;19.20;67.60;;;20.07;59.63;102412.84;2064333;28;20133;-59
2022/07/18 02:29:15;;;;;;;0.10;0.10;;;19.20;67.60;;;20.11;59.63;102415.59;2065514;28;20527;-59
2022/07/18 02:30:19;;;;;;;0.10;0.10;;;19.20;67.60;;;20.14;59.46;102417.66;2064784;28;20050;-59
2022/07/18 02:31:23;;;;;;;0.10;0.10;;;19.10;67.60;;;20.15;59.22;102432.97;2064718;28;20165;-60
2022/07/18 02:32:26;;;;;;;0.10;0.10;;;19.10;67.70;;;20.13;59.23;102422.31;2065363;28;20057;-59
2022/07/18 02:33:29;;;;;;;0.10;0.10;;;19.10;67.80;;;20.10;59.25;102419.53;2064992;28;20498;-63
2022/07/18 02:34:32;;;;;;;0.10;0.10;;;19.00;67.80;;;20.06;59.23;102422.19;2064880;28;20552;-59
2022/07/18 02:35:36;;;;;;;0.08;0.08;;;19.00;67.90;;;20.05;59.19;102426.09;2065493;28;20406;-59
2022/07/18 02:36:41;;;;;;;0.10;0.10;;;18.90;68.00;;;20.05;59.11;102419.81;2061296;28;20066;-59
2022/07/18 02:37:44;;;;;;;0.10;0.10;;;18.90;68.10;;;20.06;59.10;102427.69;2057430;28;20047;-58
2022/07/18 02:38:46;;;;;;;0.10;0.10;;;18.80;68.30;;;20.04;59.24;102429.22;2063417;28;20497;-59
2022/07/18 02:39:51;;;;;;;0.10;0.10;;;18.80;68.40;;;20.03;59.05;102422.13;2061884;28;20414;-59
2022/07/18 02:40:53;;;;;;;0.10;0.10;;;18.70;68.50;;;20.02;59.18;102423.28;2065827;28;20613;-58
2022/07/18 02:41:57;;;;;;;0.10;0.10;;;18.70;68.70;;;20.02;59.03;102428.78;2063408;28;20544;-59
2022/07/18 02:42:59;;;;;;;0.10;0.10;;;18.70;68.80;;;20.01;59.07;102430.72;2060858;28;20054;-59
2022/07/18 02:44:04;;;;;;;0.10;0.10;;;18.70;69.40;;;19.99;59.15;102422.09;2056547;28;20424;-59
2022/07/18 02:45:08;;;;;;;0.10;0.10;;;18.70;68.80;;;19.98;59.14;102427.94;2048801;29;20059;-60
2022/07/18 02:46:11;;;;;;;0.00;0.00;;;18.70;68.80;;;19.99;59.07;102419.34;2053710;28;20086;-59
2022/07/18 02:47:14;;;;;;;0.13;0.10;;;18.70;68.70;;;20.01;59.22;102422.50;2065523;28;20486;-58
2022/07/18 02:48:17;;;;;;;0.10;0.10;;;18.70;68.60;;;19.97;59.28;102418.13;2056339;28;20105;-59
2022/07/18 02:49:28;;;;;;;0.10;0.10;;;18.70;68.60;;;19.95;59.05;102420.44;2057125;28;20058;-59
2022/07/18 02:50:32;;;;;;;0.03;0.03;;;18.70;68.50;;;19.89;59.16;102416.41;2061300;28;20063;-59
2022/07/18 02:51:34;;;;;;;0.10;0.10;;;18.70;68.40;;;19.87;59.53;102418.75;2064389;28;20138;-60
2022/07/18 02:52:40;;;;;;;0.00;0.00;;;18.70;68.40;;;19.87;59.39;102421.47;2056467;28;20065;-59
2022/07/18 02:53:43;;;;;;;0.10;0.10;;;18.70;68.40;;;19.90;59.07;102423.50;2057975;28;20050;-59
2022/07/18 02:54:46;;;;;;;0.00;0.00;;;18.70;68.40;;;19.91;59.11;102414.09;2065403;28;20050;-59
2022/07/18 02:55:50;;;;;;;0.10;0.10;;;18.70;68.50;;;19.91;59.15;102425.88;2060216;28;20458;-60
2022/07/18 02:56:54;;;;;;;0.10;0.10;;;18.60;68.60;;;19.94;58.86;102427.06;2057428;28;20070;-59
2022/07/18 02:57:56;;;;;;;0.00;0.00;;;18.60;68.50;;;19.94;58.76;102429.81;2056480;28;20051;-58
2022/07/18 02:58:59;;;;;;;0.10;0.10;;;18.60;68.50;;;19.92;58.78;102426.63;2059061;28;20174;-59
2022/07/18 03:00:04;;;;;;;0.00;0.00;;;18.50;68.60;;;19.91;58.78;102425.06;2065277;28;20058;-60
2022/07/18 03:01:06;;;;;;;0.10;0.10;;;18.50;68.70;;;19.92;58.79;102426.63;2060685;28;20061;-59
2022/07/18 03:02:10;;;;;;;0.10;0.10;;;18.50;68.70;;;19.92;58.73;102418.41;2057261;28;20157;-60
2022/07/18 03:03:12;;;;;;;0.10;0.10;;;18.50;68.70;;;19.88;58.74;102412.09;2065267;28;20129;-59
2022/07/18 03:04:16;;;;;;;0.10;0.10;;;18.50;68.70;;;19.81;58.88;102409.22;2060639;28;20058;-59
2022/07/18 03:05:20;;;;;;;0.10;0.10;;;18.50;68.70;;;19.72;59.19;102406.72;2056893;28;20058;-60
2022/07/18 03:06:22;;;;;;;0.05;0.05;;;18.50;68.60;;;19.62;59.58;102392.81;2063312;28;20051;-59
2022/07/18 03:07:26;;;;;;;0.00;0.00;;;18.50;68.60;;;19.57;59.84;102393.13;2064366;28;20510;-59
2022/07/18 03:08:28;;;;;;;0.10;0.10;;;18.50;68.50;;;19.51;60.02;102384.41;2058235;28;20121;-59
2022/07/18 03:09:32;;;;;;;0.10;0.10;;;18.50;68.40;;;19.45;59.93;102379.59;2055766;28;20499;-63
2022/07/18 03:10:34;;;;;;;0.10;0.10;;;18.50;68.30;;;19.45;60.09;102379.59;2056787;28;20082;-59
2022/07/18 03:11:39;;;;;;;0.10;0.10;;;18.50;68.30;;;19.44;60.04;102375.28;2064386;28;20069;-59
2022/07/18 03:12:43;;;;;;;0.00;0.00;;;18.50;68.40;;;19.44;59.94;102361.59;2064215;28;20061;-59
2022/07/18 03:13:45;;;;;;;0.10;0.10;;;18.40;68.40;;;19.41;59.98;102365.03;2064805;28;20074;-59
2022/07/18 03:14:49;;;;;;;0.10;0.10;;;18.40;68.40;;;19.39;59.80;102367.34;2064425;28;20481;-60
2022/07/18 03:15:51;;;;;;;0.10;0.10;;;18.30;68.40;;;19.36;59.62;102365.34;2063820;28;20137;-59
2022/07/18 03:16:54;;;;;;;0.00;0.00;;;18.30;68.30;;;19.16;59.64;102340.69;2064643;28;20082;-58
2022/07/18 03:17:57;;;;;;;0.00;0.00;;;18.30;68.40;;;19.36;59.35;102370.81;2059855;28;20050;-59
2022/07/18 03:19:00;;;;;;;0.10;0.10;;;18.20;68.40;;;19.37;59.48;102377.88;2056494;28;20066;-59
2022/07/18 03:20:04;;;;;;;0.10;0.10;;;18.20;68.60;;;19.37;59.38;102378.66;2063741;28;20057;-59
2022/07/18 03:21:07;;;;;;;0.10;0.10;;;18.10;68.50;;;19.38;59.17;102379.47;2061442;28;20054;-59
2022/07/18 03:22:11;;;;;;;0.10;0.10;;;18.10;68.60;;;19.33;59.14;102378.59;2056554;28;20055;-58
2022/07/18 03:23:13;;;;;;;0.10;0.10;;;18.00;68.70;;;19.31;59.30;102380.13;2056222;28;20062;-58
2022/07/18 03:24:17;;;;;;;0.10;0.10;;;18.00;68.90;;;19.21;59.50;102378.72;2055798;28;20527;-59
2022/07/18 03:25:19;;;;;;;0.10;0.10;;;17.90;68.90;;;19.18;59.53;102373.97;2056536;28;20454;-59
2022/07/18 03:26:22;;;;;;;0.10;0.10;;;17.90;69.10;;;19.17;59.55;102377.09;2055402;28;20529;-58
2022/07/18 03:27:26;;;;;;;0.10;0.10;;;17.90;69.20;;;19.12;59.67;102375.41;2056637;28;20066;-59
2022/07/18 03:28:30;;;;;;;0.00;0.00;;;17.90;69.40;;;19.12;59.91;102383.63;2056295;28;20510;-62
2022/07/18 03:29:32;;;;;;;0.10;0.10;;;17.80;69.40;;;19.09;59.86;102384.34;2057387;28;20138;-58
2022/07/18 03:30:35;;;;;;;0.10;0.10;;;17.80;70.10;;;19.06;60.00;102379.59;2064033;28;20490;-59
2022/07/18 03:31:38;;;;;;;0.10;0.10;;;17.80;69.60;;;19.04;60.16;102379.16;2058577;28;20455;-58
2022/07/18 03:32:42;;;;;;;0.00;0.00;;;17.70;69.80;;;19.02;59.94;102372.47;2047674;29;20967;-58
2022/07/18 03:33:44;;;;;;;0.10;0.10;;;17.70;70.00;;;19.01;59.99;102379.88;2032395;29;20492;-58
2022/07/18 03:34:47;;;;;;;0.10;0.10;;;17.70;70.20;;;19.01;59.97;102373.63;2041803;28;20055;-59
2022/07/18 03:35:50;;;;;;;0.10;0.10;;;17.60;70.20;;;19.01;60.04;102382.59;2064630;28;20054;-60
2022/07/18 03:36:53;;;;;;;0.10;0.10;;;17.60;70.20;;;18.98;60.08;102382.56;2049711;28;20075;-59
2022/07/18 03:37:56;;;;;;;0.10;0.10;;;17.60;70.30;;;18.95;60.13;102383.25;2047889;28;20101;-60
2022/07/18 03:38:59;;;;;;;0.10;0.10;;;17.60;70.40;;;18.91;60.30;102380.47;2066906;28;20054;-59
2022/07/18 03:40:02;;;;;;;0.10;0.10;;;17.60;70.40;;;18.90;60.35;102381.59;2060565;28;20399;-59
2022/07/18 03:41:06;;;;;;;0.10;0.10;;;17.50;70.40;;;18.88;60.13;102378.44;2064566;28;20061;-60
2022/07/18 03:42:08;;;;;;;0.10;0.10;;;17.50;70.40;;;18.88;60.21;102374.91;2064385;28;20050;-61
2022/07/18 03:43:13;;;;;;;0.10;0.10;;;17.50;70.50;;;18.86;60.18;102369.78;2056394;28;20635;-59
2022/07/18 03:44:15;;;;;;;0.08;0.08;;;17.50;70.70;;;18.88;60.32;102372.16;2055309;28;20102;-59
2022/07/18 03:45:19;;;;;;;0.10;0.10;;;17.50;70.60;;;18.84;60.24;102358.41;2056407;28;20493;-61
2022/07/18 03:46:21;;;;;;;0.10;0.10;;;17.50;70.60;;;18.81;60.44;102372.00;2055960;28;20109;-64
2022/07/18 03:47:25;;;;;;;0.10;0.10;;;17.50;70.50;;;18.80;60.55;102371.25;2056365;28;20491;-59
2022/07/18 03:48:27;;;;;;;0.10;0.10;;;17.50;70.50;;;18.81;60.33;102372.81;2056369;28;20126;-61
2022/07/18 03:49:31;;;;;;;0.08;0.08;;;17.50;70.40;;;18.83;60.26;102366.97;2059503;28;20487;-59
2022/07/18 03:50:33;;;;;;;0.10;0.10;;;17.50;70.40;;;18.83;60.37;102367.78;2065440;28;20051;-58
2022/07/18 03:51:37;;;;;;;0.10;0.10;;;17.50;70.40;;;18.82;60.13;102377.13;2072606;28;20072;-59
2022/07/18 03:52:39;;;;;;;0.10;0.10;;;17.40;70.40;;;18.81;60.35;102372.81;2059273;28;20054;-59
2022/07/18 03:53:43;;;;;;;0.10;0.10;;;17.40;70.40;;;18.79;60.07;102371.59;2056768;28;20061;-66
2022/07/18 03:54:45;;;;;;;0.15;0.10;;;17.40;70.40;;;18.77;60.45;102365.69;2064439;28;20093;-59
2022/07/18 03:55:48;;;;;;;0.10;0.10;;;17.40;70.30;;;18.72;60.38;102358.56;2059742;28;20114;-58
2022/07/18 03:56:51;;;;;;;0.10;0.10;;;17.40;70.30;;;18.68;60.59;102356.91;2055895;28;20063;-59
2022/07/18 03:57:54;;;;;;;0.00;0.00;;;17.40;70.40;;;18.63;60.29;102355.22;2055571;28;20051;-59
2022/07/18 03:58:58;;;;;;;0.08;0.08;;;17.30;70.30;;;18.62;60.39;102350.09;2061727;28;20066;-59
2022/07/18 04:00:02;;;;;;;0.00;0.00;;;17.30;70.30;;;18.59;60.56;102354.34;2056784;28;20491;-59
2022/07/18 04:01:13;;;;;;;0.10;0.10;;;17.30;70.30;;;18.57;60.52;102355.84;2056055;28;20043;-59
2022/07/18 04:02:16;;;;;;;0.10;0.10;;;17.30;70.40;;;18.55;60.70;102353.47;2055938;28;20050;-59
2022/07/18 04:03:19;;;;;;;0.00;0.00;;;17.20;70.40;;;18.55;60.65;102348.00;2056330;28;20215;-61
2022/07/18 04:04:23;;;;;;;0.10;0.10;;;17.20;70.50;;;18.55;60.51;102344.50;2058262;28;20042;-59
2022/07/18 04:05:25;;;;;;;0.10;0.10;;;17.20;70.60;;;18.55;60.62;102350.72;2011583;29;1061382;-58
2022/07/18 04:06:29;;;;;;;0.10;0.10;;;17.20;70.70;;;18.56;60.38;102344.13;2048002;28;20059;-59
2022/07/18 04:07:31;;;;;;;0.10;0.10;;;17.30;70.70;;;18.57;60.52;102350.38;2058196;28;20058;-59
2022/07/18 04:08:35;;;;;;;0.10;0.10;;;17.20;70.60;;;18.58;60.44;102351.97;2057580;28;20089;-60
2022/07/18 04:09:37;;;;;;;0.20;0.20;;;17.20;70.50;;;18.58;60.37;102346.50;2061819;28;20544;-58
2022/07/18 04:10:41;;;;;;;0.10;0.10;;;17.20;70.50;;;18.59;60.23;102345.34;2063712;28;20050;-59
2022/07/18 04:11:43;;;;;;;0.10;0.10;;;17.20;70.50;;;18.59;60.38;102337.94;2056856;28;20517;-59
2022/07/18 04:12:48;;;;;;;0.10;0.10;;;17.20;70.40;;;18.59;60.36;102343.41;2059818;28;20050;-58
2022/07/18 04:13:50;;;;;;;0.20;0.20;;;17.20;70.50;;;18.61;60.19;102351.25;2064748;28;20057;-59
2022/07/18 04:14:55;;;;;;;0.10;0.10;;;17.20;70.40;;;18.61;60.08;102346.59;2063896;28;20536;-59
2022/07/18 04:15:59;;;;;;;0.10;0.10;;;17.20;70.30;;;18.60;60.31;102353.19;2064307;28;20058;-60
2022/07/18 04:17:01;;;;;;;0.20;0.20;;;17.20;70.30;;;18.58;60.39;102346.50;2064851;28;20081;-66
2022/07/18 04:18:06;;;;;;;0.10;0.10;;;17.20;70.20;;;18.56;60.17;102343.31;2064152;28;20050;-59
2022/07/18 04:19:09;;;;;;;0.10;0.10;;;17.20;70.20;;;18.56;60.18;102349.59;2055641;28;20054;-59
2022/07/18 04:20:14;;;;;;;0.10;0.10;;;17.20;70.20;;;18.56;60.27;102351.53;2056061;28;20058;-59
2022/07/18 04:21:17;;;;;;;0.10;0.10;;;17.20;70.20;;;18.56;60.07;102349.59;2063734;28;20100;-59
2022/07/18 04:22:20;;;;;;;0.10;0.10;;;17.20;70.20;;;18.51;60.29;102349.88;2064565;28;20055;-60
2022/07/18 04:23:22;;;;;;;0.10;0.10;;;17.20;70.20;;;18.56;60.42;102354.28;2060654;28;20050;-57
2022/07/18 04:24:26;;;;;;;0.10;0.10;;;17.20;70.20;;;18.57;60.30;102353.91;2056146;28;20185;-59
2022/07/18 04:25:34;;;;;;;0.10;0.10;;;17.30;70.20;;;18.59;59.83;102361.75;2056497;28;20043;-58
2022/07/18 04:26:37;;;;;;;0.10;0.10;;;17.20;70.00;;;18.60;60.12;102355.94;2055764;28;20116;-59
2022/07/18 04:27:40;;;;;;;0.17;0.17;;;17.30;70.00;;;18.61;59.83;102362.19;2056096;28;20062;-58